createdAt,value
2022-11-18T00:02:15.012Z,10.94
2022-11-18T00:04:42.030Z,10.90
2022-11-18T00:07:08.712Z,10.87
2022-11-18T00:09:37.792Z,10.87
2022-11-18T00:12:23.336Z,10.82
2022-11-18T00:14:49.857Z,10.78
2022-11-18T00:17:16.439Z,10.75
2022-11-18T00:19:45.511Z,10.73
2022-11-18T00:22:12.548Z,10.74
2022-11-18T00:24:39.160Z,10.69
2022-11-18T00:27:08.087Z,10.67
2022-11-18T00:29:34.667Z,10.62
2022-11-18T00:32:01.286Z,10.61
2022-11-18T00:34:27.934Z,10.55
2022-11-18T00:36:54.464Z,10.52
2022-11-18T00:39:24.182Z,10.50
2022-11-18T00:42:09.936Z,10.46
2022-11-18T00:44:41.595Z,10.46
2022-11-18T00:47:08.198Z,10.42
2022-11-18T00:49:34.765Z,10.41
2022-11-18T00:52:01.947Z,10.42
2022-11-18T00:54:28.496Z,10.39
2022-11-18T00:56:55.080Z,10.36
2022-11-18T00:59:24.261Z,10.33
2022-11-18T01:01:53.063Z,10.30
2022-11-18T01:04:23.789Z,10.30
2022-11-18T01:06:52.880Z,10.29
2022-11-18T01:09:21.918Z,10.28
2022-11-18T01:12:07.335Z,10.29
2022-11-18T01:14:34.153Z,10.15
2022-11-18T01:17:00.726Z,9.87
2022-11-18T01:19:27.488Z,9.50
2022-11-18T01:21:54.111Z,9.29
2022-11-18T01:24:20.648Z,9.24
2022-11-18T01:26:47.200Z,9.30
2022-11-18T01:29:13.768Z,9.44
2022-11-18T01:31:55.617Z,9.57
2022-11-18T01:34:27.908Z,9.70
2022-11-18T01:36:54.520Z,9.77
2022-11-18T01:39:25.854Z,9.84
2022-11-18T01:41:52.528Z,9.94
2022-11-18T01:44:37.874Z,10.01
2022-11-18T01:47:04.474Z,10.10
2022-11-18T01:49:33.435Z,10.11
2022-11-18T01:52:00.084Z,10.12
2022-11-18T01:54:33.812Z,10.12
2022-11-18T01:57:04.089Z,10.06
2022-11-18T01:59:31.517Z,9.85
2022-11-18T02:01:59.777Z,9.80
2022-11-18T02:04:27.017Z,9.85
2022-11-18T02:06:56.073Z,9.90
2022-11-18T02:09:22.764Z,9.93
2022-11-18T02:11:54.043Z,9.92
2022-11-18T02:14:21.736Z,9.87
2022-11-18T02:16:57.503Z,9.86
2022-11-18T02:19:36.863Z,9.84
2022-11-18T02:22:06.494Z,9.81
2022-11-18T02:24:42.625Z,9.81
2022-11-18T02:27:09.102Z,9.84
2022-11-18T02:29:45.834Z,9.87
2022-11-18T02:32:14.426Z,9.92
2022-11-18T02:34:47.028Z,9.97
2022-11-18T02:37:48.763Z,10.01
2022-11-18T02:40:24.328Z,10.00
2022-11-18T02:42:55.607Z,9.99
2022-11-18T02:45:22.255Z,10.00
2022-11-18T02:47:48.865Z,10.08
2022-11-18T02:50:16.673Z,10.17
2022-11-18T02:52:48.193Z,10.25
2022-11-18T02:55:15.407Z,10.30
2022-11-18T02:57:42.385Z,10.35
2022-11-18T03:00:09.380Z,10.41
2022-11-18T03:02:42.256Z,10.50
2022-11-18T03:05:10.034Z,10.56
2022-11-18T03:07:36.779Z,10.56
2022-11-18T03:10:05.764Z,10.54
2022-11-18T03:12:51.172Z,10.36
2022-11-18T03:15:26.955Z,10.37
2022-11-18T03:17:53.448Z,10.45
2022-11-18T03:20:22.207Z,10.49
2022-11-18T03:23:01.203Z,10.58
2022-11-18T03:25:46.466Z,10.67
2022-11-18T03:28:18.019Z,10.74
2022-11-18T03:30:53.136Z,10.76
2022-11-18T03:33:20.759Z,10.75
2022-11-18T03:35:48.017Z,10.75
2022-11-18T03:38:18.592Z,10.69
2022-11-18T03:40:52.076Z,10.41
2022-11-18T03:43:29.465Z,10.28
2022-11-18T03:45:57.739Z,10.06
2022-11-18T03:48:25.762Z,9.78
2022-11-18T03:51:02.175Z,9.34
2022-11-18T03:53:29.160Z,9.41
2022-11-18T03:55:58.255Z,9.37
2022-11-18T03:58:26.747Z,9.29
2022-11-18T04:01:01.343Z,9.46
2022-11-18T04:03:30.070Z,9.66
2022-11-18T04:05:59.622Z,9.73
2022-11-18T04:08:27.535Z,9.82
2022-11-18T04:10:55.678Z,9.95
2022-11-18T04:13:26.413Z,10.07
2022-11-18T04:15:53.323Z,10.16
2022-11-18T04:18:19.867Z,10.26
2022-11-18T04:20:46.462Z,10.33
2022-11-18T04:23:13.094Z,10.41
2022-11-18T04:25:39.623Z,10.49
2022-11-18T04:28:08.668Z,10.58
2022-11-18T04:30:37.359Z,10.64
2022-11-18T04:33:04.060Z,10.69
2022-11-18T04:35:33.099Z,10.74
2022-11-18T04:37:59.677Z,10.81
2022-11-18T04:40:26.244Z,10.88
2022-11-18T04:42:55.799Z,10.92
2022-11-18T04:45:24.985Z,10.89
2022-11-18T04:47:57.638Z,10.87
2022-11-18T04:50:27.005Z,10.87
2022-11-18T04:52:53.580Z,10.89
2022-11-18T04:55:22.652Z,10.90
2022-11-18T04:57:49.254Z,10.87
2022-11-18T05:00:16.117Z,10.87
2022-11-18T05:02:42.681Z,10.91
2022-11-18T05:05:09.285Z,10.97
2022-11-18T05:07:36.100Z,10.98
2022-11-18T05:10:02.712Z,10.98
2022-11-18T05:12:48.135Z,10.97
2022-11-18T05:15:18.047Z,10.98
2022-11-18T05:17:44.709Z,11.01
2022-11-18T05:20:11.404Z,11.02
2022-11-18T05:22:43.006Z,11.05
2022-11-18T05:25:14.161Z,11.08
2022-11-18T05:27:40.697Z,11.05
2022-11-18T05:30:07.507Z,11.05
2022-11-18T05:32:34.099Z,11.03
2022-11-18T05:35:00.655Z,11.03
2022-11-18T05:37:27.212Z,11.02
2022-11-18T05:39:53.736Z,11.07
2022-11-18T05:42:39.071Z,11.11
2022-11-18T05:45:08.228Z,11.11
2022-11-18T05:47:54.756Z,11.10
2022-11-18T05:50:23.992Z,11.06
2022-11-18T05:52:52.838Z,10.93
2022-11-18T05:55:19.416Z,10.87
2022-11-18T05:57:47.983Z,10.92
2022-11-18T06:00:17.370Z,10.97
2022-11-18T06:02:46.639Z,11.02
2022-11-18T06:05:13.228Z,11.06
2022-11-18T06:07:41.439Z,11.10
2022-11-18T06:10:08.380Z,11.16
2022-11-18T06:12:38.311Z,11.16
2022-11-18T06:15:23.999Z,11.16
2022-11-18T06:17:52.295Z,11.09
2022-11-18T06:20:19.410Z,11.05
2022-11-18T06:22:46.799Z,11.04
2022-11-18T06:25:13.549Z,10.91
2022-11-18T06:27:40.109Z,10.83
2022-11-18T06:30:09.986Z,10.84
2022-11-18T06:32:36.559Z,10.83
2022-11-18T06:35:03.204Z,10.83
2022-11-18T06:37:29.790Z,10.79
2022-11-18T06:39:58.763Z,10.75
2022-11-18T06:42:46.704Z,10.71
2022-11-18T06:45:13.365Z,10.76
2022-11-18T06:47:40.408Z,10.71
2022-11-18T06:50:07.155Z,10.69
2022-11-18T06:52:33.736Z,10.72
2022-11-18T06:55:00.364Z,10.77
2022-11-18T06:57:29.357Z,10.84
2022-11-18T07:00:02.035Z,10.87
2022-11-18T07:02:31.703Z,10.83
2022-11-18T07:04:58.300Z,10.77
2022-11-18T07:07:24.879Z,10.82
2022-11-18T07:09:58.582Z,10.88
2022-11-18T07:12:25.107Z,10.93
2022-11-18T07:14:51.737Z,10.98
2022-11-18T07:17:18.865Z,11.06
2022-11-18T07:19:45.435Z,11.13
2022-11-18T07:22:12.004Z,11.17
2022-11-18T07:24:38.574Z,11.21
2022-11-18T07:27:05.119Z,11.25
2022-11-18T07:29:34.664Z,11.29
2022-11-18T07:32:04.098Z,11.36
2022-11-18T07:34:33.217Z,11.46
2022-11-18T07:36:59.791Z,11.49
2022-11-18T07:39:31.327Z,11.49
2022-11-18T07:41:58.195Z,11.47
2022-11-18T07:44:25.017Z,11.46
2022-11-18T07:46:51.755Z,11.47
2022-11-18T07:49:21.077Z,11.50
2022-11-18T07:51:52.827Z,11.50
2022-11-18T07:54:24.222Z,11.54
2022-11-18T07:56:53.526Z,11.58
2022-11-18T07:59:20.491Z,11.62
2022-11-18T08:01:47.471Z,11.66
2022-11-18T08:04:14.209Z,11.64
2022-11-18T08:06:43.192Z,11.61
2022-11-18T08:09:09.943Z,11.58
2022-11-18T08:11:36.662Z,11.55
2022-11-18T08:14:03.280Z,11.49
2022-11-18T08:16:29.813Z,11.30
2022-11-18T08:18:56.554Z,11.31
2022-11-18T08:21:23.254Z,11.29
2022-11-18T08:23:55.960Z,11.12
2022-11-18T08:26:23.055Z,11.05
2022-11-18T08:28:52.153Z,11.00
2022-11-18T08:31:22.771Z,11.02
2022-11-18T08:33:53.862Z,11.04
2022-11-18T08:36:24.023Z,10.92
2022-11-18T08:38:53.498Z,10.86
2022-11-18T08:41:21.683Z,10.90
2022-11-18T08:43:50.887Z,10.90
2022-11-18T08:46:17.447Z,10.95
2022-11-18T08:48:44.024Z,11.05
2022-11-18T08:51:11.254Z,11.03
2022-11-18T08:53:40.266Z,11.06
2022-11-18T08:56:07.386Z,11.15
2022-11-18T08:58:33.964Z,11.25
2022-11-18T09:01:07.056Z,11.30
2022-11-18T09:03:35.854Z,11.33
2022-11-18T09:06:07.328Z,11.36
2022-11-18T09:08:33.986Z,11.45
2022-11-18T09:11:04.662Z,11.50
2022-11-18T09:14:14.383Z,11.52
2022-11-18T09:16:28.199Z,11.57
2022-11-18T09:18:57.669Z,11.60
2022-11-18T09:21:27.022Z,11.57
2022-11-18T09:23:58.312Z,11.55
2022-11-18T09:26:25.032Z,11.57
2022-11-18T09:28:54.892Z,11.59
2022-11-18T09:31:21.477Z,11.60
2022-11-18T09:33:48.013Z,11.61
2022-11-18T09:36:14.577Z,11.63
2022-11-18T09:38:41.422Z,11.63
2022-11-18T09:41:11.598Z,11.64
2022-11-18T09:43:56.819Z,11.63
2022-11-18T09:46:23.437Z,11.60
2022-11-18T09:49:08.644Z,11.60
2022-11-18T09:51:38.411Z,11.62
2022-11-18T09:54:05.043Z,11.64
2022-11-18T09:56:31.705Z,11.64
2022-11-18T09:59:00.831Z,11.65
2022-11-18T10:01:29.740Z,11.71
2022-11-18T10:03:58.700Z,11.72
2022-11-18T10:06:26.678Z,11.73
2022-11-18T10:09:13.946Z,11.75
2022-11-18T10:11:44.210Z,11.76
2022-11-18T10:14:25.188Z,11.80
2022-11-18T10:17:07.145Z,11.82
2022-11-18T10:19:38.935Z,11.78
2022-11-18T10:22:24.966Z,11.69
2022-11-18T10:24:52.764Z,11.65
2022-11-18T10:27:19.390Z,11.70
2022-11-18T10:29:53.188Z,11.70
2022-11-18T10:32:22.231Z,11.72
2022-11-18T10:35:11.905Z,11.69
2022-11-18T10:38:06.377Z,11.68
2022-11-18T10:40:28.655Z,11.74
2022-11-18T10:42:55.351Z,11.73
2022-11-18T10:45:25.194Z,11.69
2022-11-18T10:47:58.196Z,11.63
2022-11-18T10:50:29.039Z,11.62
2022-11-18T10:52:55.603Z,11.62
2022-11-18T10:55:30.610Z,11.61
2022-11-18T10:57:58.746Z,11.63
2022-11-18T11:00:34.521Z,11.59
2022-11-18T11:03:01.311Z,11.59
2022-11-18T11:05:30.112Z,11.62
2022-11-18T11:08:29.219Z,11.66
2022-11-18T11:10:56.876Z,11.69
2022-11-18T11:13:27.397Z,11.69
2022-11-18T11:15:55.175Z,11.68
2022-11-18T11:18:40.985Z,11.69
2022-11-18T11:21:17.627Z,11.69
2022-11-18T11:23:47.021Z,11.67
2022-11-18T11:29:49.830Z,11.63
2022-11-18T11:32:34.811Z,11.54
2022-11-18T11:35:07.491Z,11.30
2022-11-18T11:37:42.650Z,11.29
2022-11-18T11:40:41.914Z,11.32
2022-11-18T11:43:26.983Z,11.19
2022-11-18T11:45:56.587Z,11.10
2022-11-18T11:48:35.844Z,11.08
2022-11-18T11:51:05.584Z,11.05
2022-11-18T11:53:53.199Z,10.99
2022-11-18T11:56:25.838Z,10.98
2022-11-18T11:59:02.964Z,10.97
2022-11-18T12:01:29.488Z,10.94
2022-11-18T12:04:02.315Z,10.83
2022-11-18T12:06:28.866Z,10.75
2022-11-18T12:09:12.206Z,10.66
2022-11-18T12:11:44.335Z,10.68
2022-11-18T12:14:13.055Z,10.64
2022-11-18T12:16:52.657Z,10.58
2022-11-18T12:19:22.511Z,10.58
2022-11-18T12:21:53.187Z,10.58
2022-11-18T12:24:20.663Z,10.44
2022-11-18T12:26:47.878Z,10.39
2022-11-18T12:29:22.409Z,10.28
2022-11-18T12:31:50.592Z,10.23
2022-11-18T12:34:30.840Z,10.24
2022-11-18T12:36:57.499Z,10.24
2022-11-18T12:39:27.330Z,10.23
2022-11-18T12:42:19.485Z,10.23
2022-11-18T12:44:50.047Z,10.11
2022-11-18T12:47:37.400Z,10.06
2022-11-18T12:50:08.145Z,10.06
2022-11-18T12:52:35.845Z,10.03
2022-11-18T12:55:05.000Z,10.00
2022-11-18T12:57:34.030Z,10.07
2022-11-18T13:00:19.213Z,10.08
2022-11-18T13:02:55.920Z,10.14
2022-11-18T13:05:23.908Z,10.22
2022-11-18T13:08:15.074Z,10.20
2022-11-18T13:11:14.713Z,10.10
2022-11-18T13:13:41.721Z,10.06
2022-11-18T13:16:38.281Z,9.95
2022-11-18T13:19:07.371Z,9.91
2022-11-18T13:21:52.971Z,9.82
2022-11-18T13:24:21.012Z,9.65
2022-11-18T13:26:48.279Z,9.65
2022-11-18T13:29:26.979Z,9.60
2022-11-18T13:31:57.243Z,9.55
2022-11-18T13:34:27.021Z,9.58
2022-11-18T13:36:54.392Z,9.69
2022-11-18T13:39:24.073Z,9.75
2022-11-18T13:42:03.209Z,9.81
2022-11-18T13:44:36.892Z,9.85
2022-11-18T13:47:16.998Z,9.90
2022-11-18T13:49:50.563Z,9.95
2022-11-18T13:52:37.958Z,10.00
2022-11-18T13:55:13.666Z,10.02
2022-11-18T13:57:42.696Z,10.03
2022-11-18T14:00:18.537Z,10.01
2022-11-18T14:02:46.434Z,10.05
2022-11-18T14:05:21.258Z,10.09
2022-11-18T14:07:55.773Z,10.14
2022-11-18T14:10:29.159Z,10.20
2022-11-18T14:13:00.068Z,10.24
2022-11-18T14:15:32.433Z,10.27
2022-11-18T14:17:59.623Z,10.32
2022-11-18T14:20:26.821Z,10.31
2022-11-18T14:22:54.774Z,10.34
2022-11-18T14:25:24.297Z,10.37
2022-11-18T14:27:52.056Z,10.39
2022-11-18T14:30:25.977Z,10.42
2022-11-18T14:33:11.381Z,10.43
2022-11-18T14:35:38.444Z,10.44
2022-11-18T14:41:01.563Z,10.42
2022-11-18T14:43:28.262Z,10.44
2022-11-18T14:46:15.076Z,10.40
2022-11-18T14:48:41.617Z,10.40
2022-11-18T14:51:11.650Z,10.44
2022-11-18T14:53:40.840Z,10.41
2022-11-18T14:56:15.270Z,10.41
2022-11-18T14:58:41.843Z,10.42
2022-11-18T15:01:10.078Z,10.36
2022-11-18T15:03:39.105Z,10.39
2022-11-18T15:06:14.878Z,10.42
2022-11-18T15:08:42.928Z,10.45
2022-11-18T15:11:09.659Z,10.49
2022-11-18T15:13:38.899Z,10.52
2022-11-18T15:16:16.052Z,10.56
2022-11-18T15:18:43.310Z,10.58
2022-11-18T15:21:10.074Z,10.62
2022-11-18T15:23:36.912Z,10.54
2022-11-18T15:26:06.307Z,10.54
2022-11-18T15:28:35.251Z,10.55
2022-11-18T15:31:01.911Z,10.56
2022-11-18T15:33:30.784Z,10.54
2022-11-18T15:35:59.678Z,10.45
2022-11-18T15:38:28.568Z,10.49
2022-11-18T15:40:55.143Z,10.53
2022-11-18T15:43:24.727Z,10.57
2022-11-18T15:45:57.109Z,10.59
2022-11-18T15:48:23.732Z,10.62
2022-11-18T15:50:54.353Z,10.67
2022-11-18T15:53:21.060Z,10.68
2022-11-18T15:55:47.601Z,10.65
2022-11-18T15:58:17.283Z,10.66
2022-11-18T16:00:46.784Z,10.68
2022-11-18T16:03:16.933Z,10.68
2022-11-18T16:05:43.531Z,10.70
2022-11-18T16:08:10.117Z,10.69
2022-11-18T16:10:55.225Z,10.68
2022-11-18T16:13:24.213Z,10.72
2022-11-18T16:15:50.831Z,10.73
2022-11-18T16:18:19.563Z,10.73
2022-11-18T16:20:46.177Z,10.77
2022-11-18T16:23:15.255Z,10.76
2022-11-18T16:25:46.273Z,10.79
2022-11-18T16:28:12.938Z,10.81
2022-11-18T16:30:58.072Z,10.84
2022-11-18T16:33:26.962Z,10.85
2022-11-18T16:35:56.106Z,10.88
2022-11-18T16:38:22.631Z,10.89
2022-11-18T16:40:54.815Z,10.89
2022-11-18T16:43:21.431Z,10.90
2022-11-18T16:45:53.767Z,10.90
2022-11-18T16:48:21.120Z,10.93
2022-11-18T16:51:20.130Z,10.89
2022-11-18T16:53:51.023Z,10.92
2022-11-18T16:56:20.217Z,10.81
2022-11-18T16:58:46.891Z,10.80
2022-11-18T17:01:20.035Z,10.82
2022-11-18T17:03:52.155Z,10.84
2022-11-18T17:06:21.293Z,10.57
2022-11-18T17:08:47.836Z,10.32
2022-11-18T17:11:16.925Z,10.25
2022-11-18T17:13:44.015Z,10.24
2022-11-18T17:16:20.088Z,10.05
2022-11-18T17:18:46.873Z,10.10
2022-11-18T17:21:21.173Z,10.16
2022-11-18T17:23:48.349Z,10.24
2022-11-18T17:26:16.068Z,10.34
2022-11-18T17:28:42.647Z,10.42
2022-11-18T17:31:16.595Z,10.53
2022-11-18T17:33:43.501Z,10.59
2022-11-18T17:36:13.485Z,10.48
2022-11-18T17:38:40.770Z,10.29
2022-11-18T17:41:08.061Z,10.13
2022-11-18T17:43:34.685Z,10.10
2022-11-18T17:46:02.964Z,10.20
2022-11-18T17:48:32.119Z,10.28
2022-11-18T17:51:07.301Z,10.41
2022-11-18T17:53:33.854Z,10.48
2022-11-18T17:56:03.930Z,10.55
2022-11-18T17:58:33.770Z,10.64
2022-11-18T18:01:10.275Z,10.68
2022-11-18T18:03:36.879Z,10.73
2022-11-18T18:06:06.926Z,10.78
2022-11-18T18:08:36.537Z,10.75
2022-11-18T18:11:09.641Z,10.52
2022-11-18T18:13:58.013Z,10.37
2022-11-18T18:16:24.994Z,10.38
2022-11-18T18:18:51.690Z,10.33
2022-11-18T18:21:18.269Z,10.27
2022-11-18T18:23:45.524Z,10.06
2022-11-18T18:26:12.298Z,10.00
2022-11-18T18:28:40.372Z,10.00
2022-11-18T18:31:10.472Z,10.03
2022-11-18T18:33:37.305Z,10.11
2022-11-18T18:36:07.196Z,9.84
2022-11-18T18:38:37.215Z,9.64
2022-11-18T18:41:04.497Z,9.50
2022-11-18T18:43:31.088Z,9.64
2022-11-18T18:46:23.464Z,9.80
2022-11-18T18:48:50.094Z,9.87
2022-11-18T18:51:17.260Z,9.81
2022-11-18T18:53:43.776Z,9.81
2022-11-18T18:56:10.463Z,9.69
2022-11-18T18:58:37.553Z,9.62
2022-11-18T19:01:07.446Z,9.65
2022-11-18T19:03:38.956Z,9.59
2022-11-18T19:06:47.409Z,9.39
2022-11-18T19:09:04.376Z,9.36
2022-11-18T19:11:49.798Z,9.35
2022-11-18T19:14:18.251Z,9.38
2022-11-18T19:16:48.122Z,9.39
2022-11-18T19:19:16.643Z,9.49
2022-11-18T19:21:50.022Z,9.40
2022-11-18T19:24:42.397Z,9.30
2022-11-18T19:27:03.456Z,9.30
2022-11-18T19:29:30.034Z,9.29
2022-11-18T19:31:56.687Z,9.29
2022-11-18T19:34:23.269Z,9.19
2022-11-18T19:36:50.204Z,9.10
2022-11-18T19:39:17.021Z,9.04
2022-11-18T19:41:45.803Z,9.03
2022-11-18T19:44:12.383Z,9.10
2022-11-18T19:46:39.079Z,9.14
2022-11-18T19:49:05.576Z,9.15
2022-11-18T19:51:32.854Z,9.17
2022-11-18T19:53:59.906Z,9.12
2022-11-18T19:56:29.453Z,9.13
2022-11-18T19:58:56.160Z,9.23
2022-11-18T20:01:23.810Z,9.07
2022-11-18T20:03:54.644Z,8.99
2022-11-18T20:06:24.806Z,8.84
2022-11-18T20:08:51.603Z,8.75
2022-11-18T20:11:18.771Z,8.61
2022-11-18T20:13:45.469Z,8.66
2022-11-18T20:16:13.027Z,8.70
2022-11-18T20:18:40.512Z,8.64
2022-11-18T20:21:08.167Z,8.61
2022-11-18T20:23:37.442Z,8.56
2022-11-18T20:26:11.840Z,8.50
2022-11-18T20:28:38.837Z,8.44
2022-11-18T20:31:05.813Z,8.38
2022-11-18T20:33:36.100Z,8.35
2022-11-18T20:36:05.779Z,8.43
2022-11-18T20:38:32.575Z,8.40
2022-11-18T20:41:05.548Z,8.23
2022-11-18T20:43:35.377Z,8.16
2022-11-18T20:46:02.466Z,8.19
2022-11-18T20:48:29.504Z,8.19
2022-11-18T20:51:06.291Z,8.14
2022-11-18T20:53:38.892Z,8.21
2022-11-18T20:56:06.165Z,8.20
2022-11-18T20:58:33.100Z,8.08
2022-11-18T21:01:09.482Z,8.05
2022-11-18T21:03:36.667Z,8.19
2022-11-18T21:06:12.371Z,8.18
2022-11-18T21:08:40.880Z,8.23
2022-11-18T21:11:11.557Z,8.24
2022-11-18T21:13:56.807Z,8.25
2022-11-18T21:16:26.230Z,8.04
2022-11-18T21:18:54.987Z,8.04
2022-11-18T21:21:40.466Z,7.84
2022-11-18T21:24:07.314Z,7.68
2022-11-18T21:26:34.708Z,7.28
2022-11-18T21:29:04.789Z,6.90
2022-11-18T21:31:36.315Z,6.61
2022-11-18T21:34:03.051Z,6.51
2022-11-18T21:36:29.998Z,6.48
2022-11-18T21:38:57.055Z,6.48
2022-11-18T21:41:26.101Z,6.53
2022-11-18T21:44:07.941Z,6.71
2022-11-18T21:46:34.964Z,6.92
2022-11-18T21:49:03.991Z,7.04
2022-11-18T21:51:33.493Z,7.09
2022-11-18T21:54:12.669Z,7.12
2022-11-18T21:56:44.780Z,7.13
2022-11-18T21:59:11.310Z,7.28
2022-11-18T22:01:37.901Z,7.35
2022-11-18T22:04:07.202Z,7.43
2022-11-18T22:06:34.434Z,7.46
2022-11-18T22:09:01.519Z,7.37
2022-11-18T22:11:28.421Z,7.38
2022-11-18T22:13:58.023Z,7.36
2022-11-18T22:16:27.111Z,7.31
2022-11-18T22:19:01.173Z,7.33
2022-11-18T22:21:30.482Z,7.24
2022-11-18T22:24:03.004Z,7.20
2022-11-18T22:26:29.585Z,7.18
2022-11-18T22:28:58.886Z,7.14
2022-11-18T22:31:26.380Z,6.91
2022-11-18T22:33:55.986Z,6.84
2022-11-18T22:36:23.377Z,6.64
2022-11-18T22:38:50.167Z,6.47
2022-11-18T22:41:37.293Z,6.45
2022-11-18T22:44:07.640Z,6.23
2022-11-18T22:46:38.062Z,6.12
2022-11-18T22:49:05.002Z,6.01
2022-11-18T22:51:31.669Z,5.86
2022-11-18T22:54:22.875Z,5.75
2022-11-18T22:56:44.762Z,5.80
2022-11-18T22:59:16.278Z,5.73
2022-11-18T23:01:43.745Z,5.59
2022-11-18T23:04:15.465Z,5.51
2022-11-18T23:06:42.062Z,5.31
2022-11-18T23:09:11.608Z,5.23
2022-11-18T23:11:56.819Z,5.34
2022-11-18T23:14:23.456Z,5.57
2022-11-18T23:16:54.637Z,5.75
2022-11-18T23:19:23.755Z,5.85
2022-11-18T23:21:55.236Z,5.98
2022-11-18T23:24:21.958Z,5.93
2022-11-18T23:26:51.092Z,6.09
2022-11-18T23:29:18.123Z,6.19
2022-11-18T23:31:47.800Z,6.24
2022-11-18T23:34:17.236Z,6.32
2022-11-18T23:36:43.950Z,6.34
2022-11-18T23:39:10.672Z,6.43
2022-11-18T23:41:39.775Z,6.48
2022-11-18T23:44:06.576Z,6.51
2022-11-18T23:46:36.035Z,6.47
2022-11-18T23:49:10.830Z,6.33
2022-11-18T23:51:37.365Z,6.21
2022-11-18T23:54:03.999Z,6.19
2022-11-18T23:56:37.788Z,6.24
2022-11-18T23:59:05.080Z,6.16
